T.aylin — TCA3418 — position and weather

sailwx.info

Track history (hours):
 
Tides and Currents Weather Stations Pressure Air Temp Water Temp Dewpoint Dewpoint Depression Visibility Wind Speed Wind Dir Waves Ship Positions

T.aylin

Last reported at 2017-Dec-16 11:12 UTC. Time now 2017-Dec-17 19:44 UTC.
Position N 40°46' E 029°41'.

Length 156 m; draft 8.2 m.

Type: Tanker. MMSI: 271044068.

Date/timePositionNaut miles runAvg speedWind from/ knotsBaromVisibWave heightAir tempDewpointWater temp
2017-Dec-16 11:12N 40°46' E 029°41'4 6.0
2017-Dec-16 10:30N 40°46' E 029°35'2 0.1
2017-Dec-15 09:15N 40°46' E 029°33'0 0.0
2017-Dec-15 08:59N 40°46' E 029°33'0 0.0
2017-Dec-15 08:27N 40°46' E 029°33'0 0.0
2017-Dec-15 07:56N 40°46' E 029°33'0 0.0
2017-Dec-15 07:19N 40°46' E 029°33'0 1.1
2017-Dec-15 06:55N 40°46' E 029°32'4 8.2
2017-Dec-15 06:26N 40°44' E 029°27'4 9.7
2017-Dec-15 06:00N 40°44' E 029°22'510.3
2017-Dec-15 05:30N 40°43' E 029°15'611.5
2017-Dec-15 05:00N 40°43' E 029°08'611.5
2017-Dec-15 04:30N 40°43' E 029°00'611.6
2017-Dec-15 04:00N 40°42' E 028°53'  
Track history (hours):
 
Tides and Currents Weather Stations Pressure Air Temp Water Temp Dewpoint Dewpoint Depression Visibility Wind Speed Wind Dir Waves Ship Positions

T.aylin

Last reported at 2017-Dec-16 11:12 UTC. Time now 2017-Dec-17 19:44 UTC.
Position N 40°46' E 029°41'.

Length 156 m; draft 8.2 m.

Type: Tanker. MMSI: 271044068.

Date/timePositionNaut miles runAvg speedWind from/ knotsBaromVisibWave heightAir tempDewpointWater temp
2017-Dec-16 11:12N 40°46' E 029°41'4 6.0
2017-Dec-16 10:30N 40°46' E 029°35'2 0.1
2017-Dec-15 09:15N 40°46' E 029°33'0 0.0
2017-Dec-15 08:59N 40°46' E 029°33'0 0.0
2017-Dec-15 08:27N 40°46' E 029°33'0 0.0
2017-Dec-15 07:56N 40°46' E 029°33'0 0.0
2017-Dec-15 07:19N 40°46' E 029°33'0 1.1
2017-Dec-15 06:55N 40°46' E 029°32'4 8.2
2017-Dec-15 06:26N 40°44' E 029°27'4 9.7
2017-Dec-15 06:00N 40°44' E 029°22'510.3
2017-Dec-15 05:30N 40°43' E 029°15'611.5
2017-Dec-15 05:00N 40°43' E 029°08'611.5
2017-Dec-15 04:30N 40°43' E 029°00'611.6
2017-Dec-15 04:00N 40°42' E 028°53'  

Dump ship's entire track history